createdAt,value
2022-09-03T00:00:01.256Z,67.75
2022-09-03T00:02:35.259Z,68.56
2022-09-03T00:05:06.806Z,68.99
2022-09-03T00:07:42.460Z,69.11
2022-09-03T00:10:18.051Z,69.73
2022-09-03T00:12:47.461Z,69.78
2022-09-03T00:15:17.381Z,69.78
2022-09-03T00:17:50.267Z,69.79
2022-09-03T00:20:20.050Z,69.74
2022-09-03T00:22:49.928Z,69.41
2022-09-03T00:25:25.148Z,69.51
2022-09-03T00:27:58.513Z,70.01
2022-09-03T00:30:25.449Z,70.03
2022-09-03T00:32:58.075Z,70.18
2022-09-03T00:35:28.578Z,69.88
2022-09-03T00:37:55.642Z,70.32
2022-09-03T00:40:49.372Z,70.13
2022-09-03T00:43:27.613Z,70.22
2022-09-03T00:46:02.864Z,69.82
2022-09-03T00:48:33.597Z,70.25
2022-09-03T00:51:15.017Z,70.48
2022-09-03T00:53:49.263Z,70.60
2022-09-03T00:56:23.479Z,70.85
2022-09-03T00:59:03.852Z,70.83
2022-09-03T01:01:42.691Z,70.76
2022-09-03T01:04:27.050Z,70.54
2022-09-03T01:07:03.130Z,70.22
2022-09-03T01:09:44.463Z,70.70
2022-09-03T01:12:19.137Z,70.45
2022-09-03T01:14:59.068Z,69.87
2022-09-03T01:17:40.010Z,70.16
2022-09-03T01:20:34.559Z,69.84
2022-09-03T01:23:30.050Z,69.42
2022-09-03T01:26:08.505Z,69.30
2022-09-03T01:29:10.110Z,69.68
2022-09-03T01:31:43.226Z,69.81
2022-09-03T01:34:20.106Z,70.09
2022-09-03T01:36:59.434Z,70.37
2022-09-03T01:39:33.749Z,70.52
2022-09-03T01:42:08.518Z,70.53
2022-09-03T01:44:50.448Z,69.92
2022-09-03T01:47:32.556Z,70.42
2022-09-03T01:50:05.473Z,70.45
2022-09-03T01:52:43.714Z,70.25
2022-09-03T01:55:24.671Z,70.46
2022-09-03T01:57:56.661Z,70.14
2022-09-03T02:00:26.914Z,70.43
2022-09-03T02:02:54.018Z,70.46
2022-09-03T02:05:22.666Z,70.14
2022-09-03T02:07:53.068Z,70.06
2022-09-03T02:10:22.162Z,70.44
2022-09-03T02:12:52.232Z,70.34
2022-09-03T02:15:23.242Z,70.15
2022-09-03T02:17:54.876Z,70.20
2022-09-03T02:20:25.227Z,70.54
2022-09-03T02:22:53.401Z,70.81
2022-09-03T02:25:23.102Z,71.35
2022-09-03T02:27:51.320Z,71.06
2022-09-03T02:30:17.972Z,71.11
2022-09-03T02:32:44.629Z,71.08
2022-09-03T02:35:13.372Z,71.31
2022-09-03T02:37:40.144Z,71.60
2022-09-03T02:40:07.634Z,71.66
2022-09-03T02:42:34.483Z,71.75
2022-09-03T02:45:10.353Z,72.00
2022-09-03T02:47:40.673Z,72.20
2022-09-03T02:50:07.760Z,72.50
2022-09-03T02:52:35.633Z,72.11
2022-09-03T02:55:02.187Z,71.81
2022-09-03T02:57:28.721Z,72.58
2022-09-03T02:59:55.254Z,72.28
2022-09-03T03:02:22.070Z,71.98
2022-09-03T03:04:49.170Z,71.94
2022-09-03T03:07:15.711Z,72.45
2022-09-03T03:09:43.602Z,73.06
2022-09-03T03:12:10.124Z,73.61
2022-09-03T03:14:36.653Z,73.52
2022-09-03T03:17:03.563Z,73.19
2022-09-03T03:19:30.173Z,73.26
2022-09-03T03:21:56.696Z,73.45
2022-09-03T03:24:23.281Z,73.36
2022-09-03T03:26:51.194Z,73.85
2022-09-03T03:29:18.021Z,73.55
2022-09-03T03:31:44.629Z,73.53
2022-09-03T03:34:11.178Z,73.67
2022-09-03T03:36:37.863Z,73.63
2022-09-03T03:39:04.523Z,73.40
2022-09-03T03:41:32.701Z,73.38
2022-09-03T03:44:02.526Z,73.74
2022-09-03T03:46:31.759Z,73.81
2022-09-03T03:48:58.551Z,74.06
2022-09-03T03:51:25.170Z,74.30
2022-09-03T03:53:54.833Z,74.35
2022-09-03T03:56:21.929Z,74.21
2022-09-03T03:58:48.458Z,74.04
2022-09-03T04:01:18.038Z,74.11
2022-09-03T04:03:45.446Z,73.86
2022-09-03T04:06:14.032Z,74.15
2022-09-03T04:08:42.504Z,73.92
2022-09-03T04:11:12.616Z,74.10
2022-09-03T04:13:40.566Z,74.20
2022-09-03T04:16:09.398Z,74.05
2022-09-03T04:18:38.354Z,73.96
2022-09-03T04:21:06.519Z,74.03
2022-09-03T04:23:33.867Z,73.93
2022-09-03T04:26:00.983Z,73.72
2022-09-03T04:28:28.375Z,73.67
2022-09-03T04:30:55.273Z,73.71
2022-09-03T04:33:24.873Z,73.81
2022-09-03T04:35:52.741Z,73.97
2022-09-03T04:38:19.325Z,74.07
2022-09-03T04:40:52.048Z,73.64
2022-09-03T04:43:18.655Z,73.54
2022-09-03T04:45:45.221Z,73.05
2022-09-03T04:48:11.845Z,73.02
2022-09-03T04:50:38.596Z,72.53
2022-09-03T04:53:08.165Z,73.14
2022-09-03T04:55:36.054Z,73.38
2022-09-03T04:58:02.768Z,73.42
2022-09-03T05:00:29.347Z,73.04
2022-09-03T05:02:55.929Z,72.90
2022-09-03T05:05:22.494Z,73.01
2022-09-03T05:07:49.034Z,72.55
2022-09-03T05:10:17.155Z,72.32
2022-09-03T05:12:43.804Z,72.10
2022-09-03T05:15:10.754Z,71.90
2022-09-03T05:17:37.844Z,71.69
2022-09-03T05:20:05.772Z,71.29
2022-09-03T05:22:32.308Z,71.09
2022-09-03T05:24:58.828Z,71.25
2022-09-03T05:27:26.751Z,71.37
2022-09-03T05:29:53.274Z,71.76
2022-09-03T05:32:19.810Z,71.78
2022-09-03T05:34:46.432Z,71.85
2022-09-03T05:37:13.046Z,71.37
2022-09-03T05:39:39.858Z,71.30
2022-09-03T05:42:06.724Z,71.13
2022-09-03T05:44:34.608Z,71.48
2022-09-03T05:47:01.154Z,70.75
2022-09-03T05:49:27.882Z,70.89
2022-09-03T05:51:56.423Z,70.71
2022-09-03T05:54:24.765Z,69.88
2022-09-03T05:56:51.465Z,69.81
2022-09-03T05:59:18.227Z,70.18
2022-09-03T06:01:50.397Z,69.76
2022-09-03T06:04:18.979Z,69.57
2022-09-03T06:06:47.669Z,69.56
2022-09-03T06:09:16.171Z,69.43
2022-09-03T06:11:42.889Z,69.70
2022-09-03T06:14:12.103Z,69.01
2022-09-03T06:16:40.323Z,69.41
2022-09-03T06:19:09.907Z,67.23
2022-09-03T06:21:37.306Z,68.40
2022-09-03T06:24:04.184Z,68.17
2022-09-03T06:26:30.836Z,67.74
2022-09-03T06:28:57.959Z,67.49
2022-09-03T06:31:24.970Z,64.15
2022-09-03T06:33:51.933Z,64.83
2022-09-03T06:36:21.146Z,65.96
2022-09-03T06:38:48.213Z,64.72
2022-09-03T06:41:16.562Z,63.75
2022-09-03T06:43:43.156Z,63.18
2022-09-03T06:46:11.728Z,60.24
2022-09-03T06:48:39.535Z,61.21
2022-09-03T06:51:08.565Z,61.11
2022-09-03T06:53:38.444Z,61.68
2022-09-03T06:56:07.822Z,62.01
2022-09-03T06:58:35.987Z,61.60
2022-09-03T07:01:05.936Z,60.12
2022-09-03T07:03:32.971Z,56.50
2022-09-03T07:06:03.902Z,54.17
2022-09-03T07:08:30.706Z,55.14
2022-09-03T07:10:58.828Z,55.38
2022-09-03T07:13:25.410Z,55.07
2022-09-03T07:15:59.910Z,54.03
2022-09-03T07:18:26.616Z,51.44
2022-09-03T07:20:58.217Z,51.76
2022-09-03T07:23:24.951Z,52.55
2022-09-03T07:25:53.910Z,52.42
2022-09-03T07:28:22.078Z,52.46
2022-09-03T07:30:48.663Z,51.36
2022-09-03T07:33:15.253Z,51.01
2022-09-03T07:35:41.818Z,50.92
2022-09-03T07:38:08.457Z,51.15
2022-09-03T07:40:35.044Z,50.28
2022-09-03T07:43:01.719Z,49.97
2022-09-03T07:45:29.682Z,49.58
2022-09-03T07:47:56.351Z,49.54
2022-09-03T07:50:22.858Z,50.42
2022-09-03T07:52:49.773Z,50.64
2022-09-03T07:55:16.542Z,50.27
2022-09-03T07:57:43.141Z,49.03
2022-09-03T08:00:10.692Z,48.00
2022-09-03T08:02:43.002Z,48.78
2022-09-03T08:05:12.209Z,49.50
2022-09-03T08:07:41.935Z,48.46
2022-09-03T08:10:09.262Z,48.28
2022-09-03T08:12:35.808Z,48.03
2022-09-03T08:15:02.867Z,47.91
2022-09-03T08:17:29.390Z,47.97
2022-09-03T08:19:57.654Z,46.96
2022-09-03T08:22:27.326Z,46.79
2022-09-03T08:24:54.010Z,47.28
2022-09-03T08:27:20.767Z,47.72
2022-09-03T08:29:47.337Z,48.68
2022-09-03T08:32:14.309Z,49.25
2022-09-03T08:34:41.074Z,49.41
2022-09-03T08:37:09.011Z,50.40
2022-09-03T08:39:35.726Z,50.71
2022-09-03T08:42:36.066Z,51.48
2022-09-03T08:45:09.425Z,52.19
2022-09-03T08:47:44.067Z,53.07
2022-09-03T08:50:16.961Z,54.00
2022-09-03T08:52:47.694Z,52.52
2022-09-03T08:55:21.692Z,51.94
2022-09-03T08:57:52.880Z,52.35
2022-09-03T09:00:19.786Z,53.24
2022-09-03T09:02:59.810Z,52.18
2022-09-03T09:05:40.147Z,52.55
2022-09-03T09:08:17.671Z,50.72
2022-09-03T09:10:48.098Z,50.83
2022-09-03T09:13:24.118Z,50.46
2022-09-03T09:15:59.543Z,50.32
2022-09-03T09:18:39.582Z,50.46
2022-09-03T09:21:10.796Z,49.75
2022-09-03T09:23:43.235Z,49.69
2022-09-03T09:26:13.323Z,49.58
2022-09-03T09:28:39.912Z,49.60
2022-09-03T09:31:10.061Z,49.07
2022-09-03T09:33:37.385Z,48.88
2022-09-03T09:36:06.880Z,48.32
2022-09-03T09:38:35.678Z,48.50
2022-09-03T09:41:15.498Z,48.31
2022-09-03T09:43:43.535Z,48.25
2022-09-03T09:46:14.293Z,48.21
2022-09-03T09:48:49.015Z,47.11
2022-09-03T09:51:23.433Z,47.40
2022-09-03T09:54:01.984Z,47.18
2022-09-03T09:56:30.417Z,47.30
2022-09-03T09:59:05.749Z,47.79
2022-09-03T10:01:32.764Z,47.32
2022-09-03T10:04:11.532Z,46.71
2022-09-03T10:06:45.345Z,47.02
2022-09-03T10:09:15.799Z,47.40
2022-09-03T10:11:48.295Z,47.62
2022-09-03T10:14:23.001Z,46.74
2022-09-03T10:16:56.258Z,46.82
2022-09-03T10:19:43.780Z,46.02
2022-09-03T10:22:17.311Z,45.81
2022-09-03T10:24:55.334Z,46.62
2022-09-03T10:27:23.514Z,45.83
2022-09-03T10:29:52.710Z,46.00
2022-09-03T10:32:48.320Z,46.16
2022-09-03T10:35:23.668Z,45.72
2022-09-03T10:38:00.370Z,45.22
2022-09-03T10:40:34.999Z,45.11
2022-09-03T10:43:38.444Z,44.82
2022-09-03T10:46:11.909Z,44.51
2022-09-03T10:48:50.272Z,44.51
2022-09-03T10:51:19.967Z,43.87
2022-09-03T10:54:02.094Z,44.48
2022-09-03T10:56:35.568Z,44.00
2022-09-03T10:59:19.784Z,44.15
2022-09-03T11:02:01.232Z,43.51
2022-09-03T11:04:37.785Z,42.97
2022-09-03T11:07:08.873Z,44.49
2022-09-03T11:09:38.666Z,42.99
2022-09-03T11:12:09.932Z,42.72
2022-09-03T11:14:40.386Z,41.86
2022-09-03T11:17:11.904Z,42.27
2022-09-03T11:19:47.846Z,41.57
2022-09-03T11:22:15.359Z,40.49
2022-09-03T11:24:54.221Z,39.91
2022-09-03T11:27:32.669Z,40.65
2022-09-03T11:30:05.269Z,40.60
2022-09-03T11:32:43.582Z,40.18
2022-09-03T11:35:15.619Z,40.64
2022-09-03T11:37:53.191Z,40.56
2022-09-03T11:40:20.083Z,40.59
2022-09-03T11:42:46.887Z,40.83
2022-09-03T11:45:22.854Z,41.49
2022-09-03T11:47:50.583Z,41.17
2022-09-03T11:50:21.783Z,41.32
2022-09-03T11:52:50.518Z,41.55
2022-09-03T11:55:37.571Z,42.16
2022-09-03T11:58:16.841Z,42.68
2022-09-03T12:00:44.849Z,42.85
2022-09-03T12:03:14.355Z,43.08
2022-09-03T12:05:51.607Z,43.37
2022-09-03T12:09:00.793Z,43.94
2022-09-03T12:11:41.020Z,43.21
2022-09-03T12:14:19.023Z,42.94
2022-09-03T12:17:13.471Z,43.46
2022-09-03T12:19:45.616Z,43.52
2022-09-03T12:22:16.237Z,44.90
2022-09-03T12:24:43.261Z,43.65
2022-09-03T12:27:13.233Z,42.80
2022-09-03T12:29:51.858Z,42.58
2022-09-03T12:32:19.793Z,42.81
2022-09-03T12:34:49.073Z,42.90
2022-09-03T12:38:04.543Z,42.25
2022-09-03T12:40:17.190Z,42.42
2022-09-03T12:42:43.849Z,42.41
2022-09-03T12:45:10.954Z,42.00
2022-09-03T12:47:40.770Z,41.66
2022-09-03T12:50:09.251Z,42.22
2022-09-03T12:52:39.953Z,41.40
2022-09-03T12:55:13.579Z,41.05
2022-09-03T12:57:43.727Z,40.80
2022-09-03T13:00:15.015Z,41.44
2022-09-03T13:02:50.958Z,41.00
2022-09-03T13:05:21.869Z,40.72
2022-09-03T13:07:52.593Z,41.16
2022-09-03T13:10:26.724Z,40.94
2022-09-03T13:12:58.850Z,40.72
2022-09-03T13:15:26.138Z,40.11
2022-09-03T13:18:08.379Z,41.20
2022-09-03T13:20:44.018Z,40.29
2022-09-03T13:23:26.915Z,41.49
2022-09-03T13:26:06.226Z,40.35
2022-09-03T13:28:46.423Z,40.13
2022-09-03T13:31:26.614Z,39.96
2022-09-03T13:33:59.532Z,40.01
2022-09-03T13:36:30.862Z,40.14
2022-09-03T13:39:00.685Z,40.14
2022-09-03T13:41:36.622Z,40.57
2022-09-03T13:44:09.609Z,40.50
2022-09-03T13:46:43.159Z,39.78
2022-09-03T13:49:24.324Z,39.82
2022-09-03T13:51:53.230Z,40.64
2022-09-03T13:54:47.610Z,40.99
2022-09-03T13:57:27.579Z,41.08
2022-09-03T13:59:58.987Z,41.77
2022-09-03T14:02:33.458Z,41.03
2022-09-03T14:05:06.790Z,41.17
2022-09-03T14:07:46.021Z,40.00
2022-09-03T14:10:22.632Z,39.50
2022-09-03T14:13:01.737Z,39.47
2022-09-03T14:15:34.943Z,39.33
2022-09-03T14:18:12.278Z,39.48
2022-09-03T14:20:46.130Z,39.82
2022-09-03T14:23:27.695Z,39.26
2022-09-03T14:25:55.021Z,39.44
2022-09-03T14:28:30.797Z,39.03
2022-09-03T14:31:07.770Z,38.13
2022-09-03T14:33:43.927Z,38.16
2022-09-03T14:36:21.164Z,38.07
2022-09-03T14:39:08.850Z,37.63
2022-09-03T14:41:54.719Z,37.52
2022-09-03T14:44:37.617Z,36.82
2022-09-03T14:47:23.149Z,37.13
2022-09-03T14:50:03.812Z,37.14
2022-09-03T14:52:53.279Z,37.00
2022-09-03T14:55:31.146Z,36.68
2022-09-03T14:58:27.755Z,36.51
2022-09-03T15:01:00.959Z,36.97
2022-09-03T15:03:57.818Z,36.93
2022-09-03T15:06:37.243Z,37.52
2022-09-03T15:09:32.265Z,37.16
2022-09-03T15:12:08.773Z,37.53
2022-09-03T15:14:42.330Z,36.71
2022-09-03T15:17:28.568Z,36.81
2022-09-03T15:20:09.326Z,36.59
2022-09-03T15:22:46.760Z,36.44
2022-09-03T15:25:26.827Z,37.61
2022-09-03T15:28:09.337Z,38.46
2022-09-03T15:30:45.367Z,38.54
2022-09-03T15:33:23.057Z,39.27
2022-09-03T15:36:11.681Z,39.99
2022-09-03T15:38:45.444Z,40.59
2022-09-03T15:41:29.701Z,40.99
2022-09-03T15:44:01.433Z,41.45
2022-09-03T15:46:37.750Z,41.51
2022-09-03T15:49:16.799Z,42.30
2022-09-03T15:51:53.983Z,42.65
2022-09-03T15:54:30.650Z,42.76
2022-09-03T15:57:05.548Z,43.71
2022-09-03T15:59:39.925Z,43.71
2022-09-03T16:02:12.387Z,43.77
2022-09-03T16:05:01.550Z,44.28
2022-09-03T16:07:41.592Z,44.53
2022-09-03T16:10:28.236Z,44.44
2022-09-03T16:13:06.146Z,44.67
2022-09-03T16:15:38.175Z,45.83
2022-09-03T16:18:09.353Z,46.66
2022-09-03T16:20:41.323Z,46.96
2022-09-03T16:23:12.833Z,48.87
2022-09-03T16:25:48.519Z,50.47
2022-09-03T16:28:24.642Z,51.80
2022-09-03T16:31:04.971Z,52.25
2022-09-03T16:33:41.021Z,53.19
2022-09-03T16:36:25.067Z,53.11
2022-09-03T16:39:00.635Z,53.19
2022-09-03T16:41:33.602Z,53.11
2022-09-03T16:44:11.730Z,53.89
2022-09-03T16:46:44.126Z,53.82
2022-09-03T16:49:38.369Z,53.90
2022-09-03T16:52:16.266Z,53.78
2022-09-03T16:55:06.869Z,54.11
2022-09-03T16:57:45.606Z,53.83
2022-09-03T17:00:15.116Z,54.61
2022-09-03T17:03:04.237Z,54.36
2022-09-03T17:06:08.101Z,54.67
2022-09-03T17:08:45.923Z,55.91
2022-09-03T17:11:26.227Z,55.63
2022-09-03T17:14:06.988Z,56.01
2022-09-03T17:16:50.998Z,56.00
2022-09-03T17:19:29.390Z,56.96
2022-09-03T17:22:16.018Z,57.31
2022-09-03T17:24:44.723Z,58.12
2022-09-03T17:27:26.792Z,58.83
2022-09-03T17:30:07.852Z,59.93
2022-09-03T17:32:51.250Z,61.83
2022-09-03T17:35:37.320Z,61.53
2022-09-03T17:38:17.899Z,62.20
2022-09-03T17:40:57.035Z,62.80
2022-09-03T17:43:38.649Z,63.47
2022-09-03T17:46:18.900Z,63.85
2022-09-03T17:48:50.977Z,64.00
2022-09-03T17:51:29.810Z,64.31
2022-09-03T17:54:05.449Z,64.44
2022-09-03T17:56:42.433Z,64.66
2022-09-03T17:59:16.667Z,64.60
2022-09-03T18:01:50.836Z,64.33
2022-09-03T18:04:34.128Z,64.52
2022-09-03T18:07:10.875Z,64.71
2022-09-03T18:09:42.635Z,64.38
2022-09-03T18:12:14.423Z,64.22
2022-09-03T18:14:48.978Z,64.63
2022-09-03T18:17:25.194Z,64.56
2022-09-03T18:20:00.841Z,64.23
2022-09-03T18:22:37.648Z,64.41
2022-09-03T18:25:07.655Z,64.24
2022-09-03T18:27:39.370Z,63.97
2022-09-03T18:30:08.582Z,63.65
2022-09-03T18:32:35.140Z,63.75
2022-09-03T18:35:06.804Z,64.48
2022-09-03T18:37:33.417Z,64.13
2022-09-03T18:40:00.038Z,64.34
2022-09-03T18:42:35.616Z,64.53
2022-09-03T18:45:24.341Z,64.67
2022-09-03T18:48:05.945Z,64.17
2022-09-03T18:50:44.879Z,64.08
2022-09-03T18:53:18.279Z,64.56
2022-09-03T18:55:57.176Z,64.34
2022-09-03T18:58:31.851Z,64.86
2022-09-03T19:01:07.908Z,64.99
2022-09-03T19:03:52.507Z,65.71
2022-09-03T19:06:34.610Z,65.63
2022-09-03T19:09:09.693Z,65.67
2022-09-03T19:11:55.539Z,65.80
2022-09-03T19:14:31.215Z,66.15
2022-09-03T19:17:06.722Z,65.91
2022-09-03T19:19:44.049Z,66.66
2022-09-03T19:22:15.822Z,66.54
2022-09-03T19:24:42.534Z,66.65
2022-09-03T19:27:49.984Z,66.70
2022-09-03T19:30:10.421Z,66.89
2022-09-03T19:32:46.476Z,67.45
2022-09-03T19:35:17.549Z,67.62
2022-09-03T19:37:59.282Z,67.71
2022-09-03T19:40:48.549Z,69.03
2022-09-03T19:43:25.255Z,69.41
2022-09-03T19:46:04.534Z,69.49
2022-09-03T19:48:44.437Z,69.77
2022-09-03T19:51:16.006Z,70.29
2022-09-03T19:53:44.613Z,70.84
2022-09-03T19:56:17.922Z,70.55
2022-09-03T19:58:49.364Z,70.98
2022-09-03T20:01:17.700Z,71.25
2022-09-03T20:03:44.311Z,71.32
2022-09-03T20:06:12.570Z,71.71
2022-09-03T20:08:39.107Z,71.91
2022-09-03T20:11:12.150Z,72.11
2022-09-03T20:13:39.729Z,72.14
2022-09-03T20:16:14.591Z,72.20
2022-09-03T20:18:52.114Z,72.99
2022-09-03T20:21:25.167Z,73.35
2022-09-03T20:24:00.168Z,73.89
2022-09-03T20:26:38.427Z,73.65
2022-09-03T20:29:23.080Z,73.87
2022-09-03T20:31:59.971Z,74.82
2022-09-03T20:34:36.173Z,74.90
2022-09-03T20:37:15.255Z,75.68
2022-09-03T20:39:52.934Z,75.92
2022-09-03T20:42:44.855Z,76.08
2022-09-03T20:45:18.008Z,76.00
2022-09-03T20:48:02.286Z,75.98
2022-09-03T20:50:39.536Z,76.47
2022-09-03T20:53:18.087Z,76.81
2022-09-03T20:55:49.807Z,76.89
2022-09-03T20:58:26.789Z,76.98
2022-09-03T21:01:01.954Z,76.81
2022-09-03T21:03:33.978Z,76.94
2022-09-03T21:06:15.926Z,77.67
2022-09-03T21:09:00.726Z,78.04
2022-09-03T21:11:37.416Z,78.27
2022-09-03T21:14:18.843Z,78.23
2022-09-03T21:16:56.726Z,78.09
2022-09-03T21:19:38.351Z,78.73
2022-09-03T21:22:14.052Z,79.21
2022-09-03T21:24:49.126Z,79.54
2022-09-03T21:27:19.865Z,79.31
2022-09-03T21:29:57.104Z,79.81
2022-09-03T21:32:33.293Z,80.14
2022-09-03T21:35:06.233Z,80.01
2022-09-03T21:37:35.578Z,80.34
2022-09-03T21:40:07.983Z,80.53
2022-09-03T21:42:38.786Z,81.21
2022-09-03T21:45:14.107Z,81.53
2022-09-03T21:47:48.114Z,81.55
2022-09-03T21:50:18.634Z,81.71
2022-09-03T21:52:52.470Z,81.66
2022-09-03T21:55:22.762Z,81.55
2022-09-03T21:58:04.401Z,81.34
2022-09-03T22:00:32.225Z,81.62
2022-09-03T22:02:59.378Z,80.80
2022-09-03T22:05:32.976Z,80.50
2022-09-03T22:08:09.729Z,81.33
2022-09-03T22:10:45.456Z,81.10
2022-09-03T22:13:20.430Z,81.72
2022-09-03T22:15:50.349Z,81.68
2022-09-03T22:18:21.576Z,81.59
2022-09-03T22:20:48.378Z,81.49
2022-09-03T22:23:20.355Z,81.40
2022-09-03T22:25:52.521Z,81.48
2022-09-03T22:28:26.891Z,81.55
2022-09-03T22:31:01.395Z,81.61
2022-09-03T22:33:35.665Z,82.81
2022-09-03T22:36:11.633Z,83.03
2022-09-03T22:38:58.817Z,83.38
2022-09-03T22:41:51.007Z,82.91
2022-09-03T22:44:33.114Z,82.81
2022-09-03T22:47:14.873Z,82.98
2022-09-03T22:49:50.701Z,82.62
2022-09-03T22:52:32.210Z,83.26
2022-09-03T22:55:14.170Z,84.03
2022-09-03T22:57:51.160Z,84.27
2022-09-03T23:00:18.318Z,84.30
2022-09-03T23:02:50.155Z,84.95
2022-09-03T23:05:30.022Z,85.20
2022-09-03T23:08:02.735Z,85.34
2022-09-03T23:10:33.372Z,85.26
2022-09-03T23:13:07.762Z,85.47
2022-09-03T23:15:38.650Z,85.70
2022-09-03T23:18:11.894Z,85.54
2022-09-03T23:20:44.664Z,85.39
2022-09-03T23:23:17.782Z,84.99
2022-09-03T23:25:49.449Z,84.59
2022-09-03T23:28:24.069Z,85.48
2022-09-03T23:30:51.019Z,85.23
2022-09-03T23:33:18.907Z,85.03
2022-09-03T23:35:52.997Z,84.93
2022-09-03T23:38:26.972Z,85.10
2022-09-03T23:40:57.203Z,85.09
2022-09-03T23:43:54.106Z,84.87
2022-09-03T23:46:26.906Z,84.73
2022-09-03T23:49:17.098Z,84.68
2022-09-03T23:52:00.838Z,84.44
2022-09-03T23:54:37.580Z,84.94
2022-09-03T23:57:11.928Z,85.12
